sensor_id;sensor_type;location;lat;lon;timestamp;P1;durP1;ratioP1;P2;durP2;ratioP2
64789;SDS011;51223;51.816;5.862;2022-08-19T00:01:50;5.35;;;2.20;;
64789;SDS011;51223;51.816;5.862;2022-08-19T00:04:18;2.22;;;1.80;;
64789;SDS011;51223;51.816;5.862;2022-08-19T00:06:45;3.33;;;2.10;;
64789;SDS011;51223;51.816;5.862;2022-08-19T00:09:13;3.97;;;2.35;;
64789;SDS011;51223;51.816;5.862;2022-08-19T00:11:41;2.85;;;2.25;;
64789;SDS011;51223;51.816;5.862;2022-08-19T00:14:08;5.10;;;2.25;;
64789;SDS011;51223;51.816;5.862;2022-08-19T00:16:36;2.95;;;2.05;;
64789;SDS011;51223;51.816;5.862;2022-08-19T00:19:03;3.45;;;2.30;;
64789;SDS011;51223;51.816;5.862;2022-08-19T00:21:29;3.70;;;2.75;;
64789;SDS011;51223;51.816;5.862;2022-08-19T00:23:55;3.05;;;2.35;;
64789;SDS011;51223;51.816;5.862;2022-08-19T00:26:26;4.70;;;2.75;;
64789;SDS011;51223;51.816;5.862;2022-08-19T00:28:53;3.10;;;2.17;;
64789;SDS011;51223;51.816;5.862;2022-08-19T00:31:19;5.28;;;2.70;;
64789;SDS011;51223;51.816;5.862;2022-08-19T00:33:46;3.90;;;2.47;;
64789;SDS011;51223;51.816;5.862;2022-08-19T00:36:13;3.63;;;2.30;;
64789;SDS011;51223;51.816;5.862;2022-08-19T00:38:39;3.03;;;2.15;;
64789;SDS011;51223;51.816;5.862;2022-08-19T00:41:14;4.07;;;2.55;;
64789;SDS011;51223;51.816;5.862;2022-08-19T00:43:43;5.15;;;2.75;;
64789;SDS011;51223;51.816;5.862;2022-08-19T00:46:21;3.55;;;2.42;;
64789;SDS011;51223;51.816;5.862;2022-08-19T00:48:47;5.18;;;2.45;;
64789;SDS011;51223;51.816;5.862;2022-08-19T00:51:13;3.05;;;2.15;;
64789;SDS011;51223;51.816;5.862;2022-08-19T00:53:38;2.53;;;2.17;;
64789;SDS011;51223;51.816;5.862;2022-08-19T00:56:05;5.03;;;2.22;;
64789;SDS011;51223;51.816;5.862;2022-08-19T00:58:32;5.57;;;2.40;;
64789;SDS011;51223;51.816;5.862;2022-08-19T01:01:01;2.58;;;2.15;;
64789;SDS011;51223;51.816;5.862;2022-08-19T01:03:28;3.45;;;2.50;;
64789;SDS011;51223;51.816;5.862;2022-08-19T01:05:54;4.18;;;2.17;;
64789;SDS011;51223;51.816;5.862;2022-08-19T01:08:21;2.20;;;2.00;;
64789;SDS011;51223;51.816;5.862;2022-08-19T01:10:49;4.20;;;2.40;;
64789;SDS011;51223;51.816;5.862;2022-08-19T01:13:20;3.47;;;2.50;;
64789;SDS011;51223;51.816;5.862;2022-08-19T01:15:52;3.83;;;2.47;;
64789;SDS011;51223;51.816;5.862;2022-08-19T01:18:21;3.95;;;2.58;;
64789;SDS011;51223;51.816;5.862;2022-08-19T01:20:49;2.80;;;2.30;;
64789;SDS011;51223;51.816;5.862;2022-08-19T01:23:17;2.75;;;2.25;;
64789;SDS011;51223;51.816;5.862;2022-08-19T01:25:47;3.08;;;2.35;;
64789;SDS011;51223;51.816;5.862;2022-08-19T01:28:24;2.88;;;2.22;;
64789;SDS011;51223;51.816;5.862;2022-08-19T01:30:52;3.00;;;2.17;;
64789;SDS011;51223;51.816;5.862;2022-08-19T01:33:19;3.25;;;2.40;;
64789;SDS011;51223;51.816;5.862;2022-08-19T01:35:45;3.10;;;2.20;;
64789;SDS011;51223;51.816;5.862;2022-08-19T01:38:20;3.33;;;2.47;;
64789;SDS011;51223;51.816;5.862;2022-08-19T01:40:49;3.60;;;2.35;;
64789;SDS011;51223;51.816;5.862;2022-08-19T01:43:15;3.65;;;2.38;;
64789;SDS011;51223;51.816;5.862;2022-08-19T01:45:41;3.47;;;2.15;;
64789;SDS011;51223;51.816;5.862;2022-08-19T01:48:07;2.85;;;2.10;;
64789;SDS011;51223;51.816;5.862;2022-08-19T01:50:33;3.53;;;2.47;;
64789;SDS011;51223;51.816;5.862;2022-08-19T01:53:00;3.38;;;2.65;;
64789;SDS011;51223;51.816;5.862;2022-08-19T01:55:29;5.63;;;2.50;;
64789;SDS011;51223;51.816;5.862;2022-08-19T01:57:55;4.43;;;2.17;;
64789;SDS011;51223;51.816;5.862;2022-08-19T02:00:26;3.00;;;2.40;;
64789;SDS011;51223;51.816;5.862;2022-08-19T02:02:54;3.58;;;2.40;;
64789;SDS011;51223;51.816;5.862;2022-08-19T02:05:20;2.67;;;2.10;;
64789;SDS011;51223;51.816;5.862;2022-08-19T02:07:47;3.15;;;2.17;;
64789;SDS011;51223;51.816;5.862;2022-08-19T02:10:14;3.17;;;2.08;;
64789;SDS011;51223;51.816;5.862;2022-08-19T02:12:42;2.58;;;2.10;;
64789;SDS011;51223;51.816;5.862;2022-08-19T02:15:09;3.58;;;2.65;;
64789;SDS011;51223;51.816;5.862;2022-08-19T02:17:35;3.17;;;2.15;;
64789;SDS011;51223;51.816;5.862;2022-08-19T02:20:01;4.22;;;2.40;;
64789;SDS011;51223;51.816;5.862;2022-08-19T02:22:28;4.78;;;2.53;;
64789;SDS011;51223;51.816;5.862;2022-08-19T02:24:54;3.50;;;2.03;;
64789;SDS011;51223;51.816;5.862;2022-08-19T02:27:20;2.88;;;2.50;;
64789;SDS011;51223;51.816;5.862;2022-08-19T02:29:47;3.80;;;2.53;;
64789;SDS011;51223;51.816;5.862;2022-08-19T02:32:14;3.85;;;2.53;;
64789;SDS011;51223;51.816;5.862;2022-08-19T02:34:41;3.10;;;2.50;;
64789;SDS011;51223;51.816;5.862;2022-08-19T02:37:07;2.67;;;2.22;;
64789;SDS011;51223;51.816;5.862;2022-08-19T02:39:52;3.03;;;2.28;;
64789;SDS011;51223;51.816;5.862;2022-08-19T02:42:18;4.07;;;2.58;;
64789;SDS011;51223;51.816;5.862;2022-08-19T02:44:44;2.90;;;2.30;;
64789;SDS011;51223;51.816;5.862;2022-08-19T02:47:10;6.25;;;2.60;;
64789;SDS011;51223;51.816;5.862;2022-08-19T02:49:36;4.47;;;2.72;;
64789;SDS011;51223;51.816;5.862;2022-08-19T02:52:02;5.25;;;2.45;;
64789;SDS011;51223;51.816;5.862;2022-08-19T02:54:28;6.28;;;2.75;;
64789;SDS011;51223;51.816;5.862;2022-08-19T02:56:54;2.75;;;2.20;;
64789;SDS011;51223;51.816;5.862;2022-08-19T02:59:20;3.13;;;2.50;;
64789;SDS011;51223;51.816;5.862;2022-08-19T03:01:46;2.75;;;2.28;;
64789;SDS011;51223;51.816;5.862;2022-08-19T03:04:14;2.92;;;2.25;;
64789;SDS011;51223;51.816;5.862;2022-08-19T03:06:41;3.80;;;2.67;;
64789;SDS011;51223;51.816;5.862;2022-08-19T03:09:09;4.05;;;2.88;;
64789;SDS011;51223;51.816;5.862;2022-08-19T03:11:36;3.58;;;2.30;;
64789;SDS011;51223;51.816;5.862;2022-08-19T03:14:02;2.70;;;2.20;;
64789;SDS011;51223;51.816;5.862;2022-08-19T03:16:30;3.03;;;2.38;;
64789;SDS011;51223;51.816;5.862;2022-08-19T03:18:59;4.93;;;2.70;;
64789;SDS011;51223;51.816;5.862;2022-08-19T03:21:27;6.15;;;2.38;;
64789;SDS011;51223;51.816;5.862;2022-08-19T03:23:57;3.08;;;2.25;;
64789;SDS011;51223;51.816;5.862;2022-08-19T03:26:25;4.13;;;2.25;;
64789;SDS011;51223;51.816;5.862;2022-08-19T03:28:51;2.55;;;1.85;;
64789;SDS011;51223;51.816;5.862;2022-08-19T03:31:18;3.53;;;2.50;;
64789;SDS011;51223;51.816;5.862;2022-08-19T03:33:48;4.13;;;2.90;;
64789;SDS011;51223;51.816;5.862;2022-08-19T03:36:16;3.50;;;2.55;;
64789;SDS011;51223;51.816;5.862;2022-08-19T03:38:52;4.00;;;2.78;;
64789;SDS011;51223;51.816;5.862;2022-08-19T03:41:42;3.42;;;2.88;;
64789;SDS011;51223;51.816;5.862;2022-08-19T03:44:07;4.25;;;3.00;;
64789;SDS011;51223;51.816;5.862;2022-08-19T03:46:34;4.00;;;3.22;;
64789;SDS011;51223;51.816;5.862;2022-08-19T03:49:01;4.05;;;2.88;;
64789;SDS011;51223;51.816;5.862;2022-08-19T03:51:34;4.90;;;3.03;;
64789;SDS011;51223;51.816;5.862;2022-08-19T03:54:03;4.90;;;3.80;;
64789;SDS011;51223;51.816;5.862;2022-08-19T03:56:30;5.32;;;3.55;;
64789;SDS011;51223;51.816;5.862;2022-08-19T03:58:57;5.72;;;3.60;;
64789;SDS011;51223;51.816;5.862;2022-08-19T04:01:24;5.38;;;3.60;;
64789;SDS011;51223;51.816;5.862;2022-08-19T04:03:52;4.68;;;3.28;;
64789;SDS011;51223;51.816;5.862;2022-08-19T04:06:19;6.40;;;3.55;;
64789;SDS011;51223;51.816;5.862;2022-08-19T04:08:48;5.78;;;3.90;;
64789;SDS011;51223;51.816;5.862;2022-08-19T04:11:20;6.05;;;3.75;;
64789;SDS011;51223;51.816;5.862;2022-08-19T04:13:57;7.03;;;4.28;;
64789;SDS011;51223;51.816;5.862;2022-08-19T04:16:24;5.43;;;3.85;;
64789;SDS011;51223;51.816;5.862;2022-08-19T04:18:56;6.22;;;4.13;;
64789;SDS011;51223;51.816;5.862;2022-08-19T04:21:26;6.35;;;3.90;;
64789;SDS011;51223;51.816;5.862;2022-08-19T04:23:52;6.18;;;3.47;;
64789;SDS011;51223;51.816;5.862;2022-08-19T04:26:24;8.23;;;3.67;;
64789;SDS011;51223;51.816;5.862;2022-08-19T04:28:51;5.50;;;3.55;;
64789;SDS011;51223;51.816;5.862;2022-08-19T04:31:19;8.40;;;4.25;;
64789;SDS011;51223;51.816;5.862;2022-08-19T04:33:47;11.05;;;5.20;;
64789;SDS011;51223;51.816;5.862;2022-08-19T04:36:16;8.55;;;4.68;;
64789;SDS011;51223;51.816;5.862;2022-08-19T04:38:47;7.75;;;4.75;;
64789;SDS011;51223;51.816;5.862;2022-08-19T04:41:13;6.90;;;4.32;;
64789;SDS011;51223;51.816;5.862;2022-08-19T04:43:58;6.50;;;4.32;;
64789;SDS011;51223;51.816;5.862;2022-08-19T04:46:24;6.03;;;4.55;;
64789;SDS011;51223;51.816;5.862;2022-08-19T04:48:49;6.68;;;4.07;;
64789;SDS011;51223;51.816;5.862;2022-08-19T04:51:15;7.00;;;4.40;;
64789;SDS011;51223;51.816;5.862;2022-08-19T04:53:42;6.22;;;4.30;;
64789;SDS011;51223;51.816;5.862;2022-08-19T04:56:09;6.68;;;4.13;;
64789;SDS011;51223;51.816;5.862;2022-08-19T04:58:38;8.43;;;6.00;;
64789;SDS011;51223;51.816;5.862;2022-08-19T05:01:08;10.48;;;5.32;;
64789;SDS011;51223;51.816;5.862;2022-08-19T05:03:45;9.80;;;5.88;;
64789;SDS011;51223;51.816;5.862;2022-08-19T05:06:12;5.38;;;3.25;;
64789;SDS011;51223;51.816;5.862;2022-08-19T05:08:40;7.40;;;3.60;;
64789;SDS011;51223;51.816;5.862;2022-08-19T05:11:09;3.17;;;2.17;;
64789;SDS011;51223;51.816;5.862;2022-08-19T05:13:43;2.35;;;1.80;;
64789;SDS011;51223;51.816;5.862;2022-08-19T05:16:11;1.48;;;1.02;;
64789;SDS011;51223;51.816;5.862;2022-08-19T05:18:38;2.15;;;1.65;;
64789;SDS011;51223;51.816;5.862;2022-08-19T05:21:24;4.82;;;3.03;;
64789;SDS011;51223;51.816;5.862;2022-08-19T05:24:09;5.38;;;3.35;;
64789;SDS011;51223;51.816;5.862;2022-08-19T05:26:36;4.97;;;3.50;;
64789;SDS011;51223;51.816;5.862;2022-08-19T05:29:03;4.15;;;2.85;;
64789;SDS011;51223;51.816;5.862;2022-08-19T05:31:30;4.28;;;3.30;;
64789;SDS011;51223;51.816;5.862;2022-08-19T05:33:56;5.18;;;3.88;;
64789;SDS011;51223;51.816;5.862;2022-08-19T05:36:24;4.93;;;3.28;;
64789;SDS011;51223;51.816;5.862;2022-08-19T05:38:52;3.95;;;2.70;;
64789;SDS011;51223;51.816;5.862;2022-08-19T05:41:18;6.60;;;4.05;;
64789;SDS011;51223;51.816;5.862;2022-08-19T05:43:45;13.15;;;5.95;;
64789;SDS011;51223;51.816;5.862;2022-08-19T05:46:17;8.85;;;5.22;;
64789;SDS011;51223;51.816;5.862;2022-08-19T05:48:44;9.32;;;5.95;;
64789;SDS011;51223;51.816;5.862;2022-08-19T05:51:11;8.82;;;5.63;;
64789;SDS011;51223;51.816;5.862;2022-08-19T05:53:37;6.40;;;4.55;;
64789;SDS011;51223;51.816;5.862;2022-08-19T05:56:07;8.60;;;5.32;;
64789;SDS011;51223;51.816;5.862;2022-08-19T05:58:40;12.32;;;4.85;;
64789;SDS011;51223;51.816;5.862;2022-08-19T06:01:14;10.45;;;6.22;;
64789;SDS011;51223;51.816;5.862;2022-08-19T06:06:08;10.57;;;6.65;;
64789;SDS011;51223;51.816;5.862;2022-08-19T06:08:38;13.80;;;8.10;;
64789;SDS011;51223;51.816;5.862;2022-08-19T06:11:19;6.28;;;4.22;;
64789;SDS011;51223;51.816;5.862;2022-08-19T06:13:49;14.00;;;7.90;;
64789;SDS011;51223;51.816;5.862;2022-08-19T06:16:18;8.75;;;6.00;;
64789;SDS011;51223;51.816;5.862;2022-08-19T06:18:46;9.07;;;5.25;;
64789;SDS011;51223;51.816;5.862;2022-08-19T06:21:12;9.82;;;6.22;;
64789;SDS011;51223;51.816;5.862;2022-08-19T06:23:38;7.70;;;5.07;;
64789;SDS011;51223;51.816;5.862;2022-08-19T06:26:04;10.07;;;6.43;;
64789;SDS011;51223;51.816;5.862;2022-08-19T06:28:30;14.18;;;7.78;;
64789;SDS011;51223;51.816;5.862;2022-08-19T06:30:58;11.65;;;6.13;;
64789;SDS011;51223;51.816;5.862;2022-08-19T06:33:24;14.55;;;8.38;;
64789;SDS011;51223;51.816;5.862;2022-08-19T06:35:49;14.48;;;8.57;;
64789;SDS011;51223;51.816;5.862;2022-08-19T06:38:15;15.55;;;9.90;;
64789;SDS011;51223;51.816;5.862;2022-08-19T06:40:41;16.65;;;8.75;;
64789;SDS011;51223;51.816;5.862;2022-08-19T06:43:07;20.23;;;12.13;;
64789;SDS011;51223;51.816;5.862;2022-08-19T06:45:33;18.58;;;11.05;;
64789;SDS011;51223;51.816;5.862;2022-08-19T06:48:00;23.85;;;11.88;;
64789;SDS011;51223;51.816;5.862;2022-08-19T06:50:25;16.27;;;9.35;;
64789;SDS011;51223;51.816;5.862;2022-08-19T06:52:51;20.27;;;10.90;;
64789;SDS011;51223;51.816;5.862;2022-08-19T06:55:17;26.33;;;13.15;;
64789;SDS011;51223;51.816;5.862;2022-08-19T06:57:43;24.85;;;12.27;;
64789;SDS011;51223;51.816;5.862;2022-08-19T07:00:10;19.00;;;10.05;;
64789;SDS011;51223;51.816;5.862;2022-08-19T07:02:39;24.65;;;12.07;;
64789;SDS011;51223;51.816;5.862;2022-08-19T07:05:06;12.50;;;7.28;;
64789;SDS011;51223;51.816;5.862;2022-08-19T07:07:32;22.27;;;12.07;;
64789;SDS011;51223;51.816;5.862;2022-08-19T07:09:59;20.98;;;9.55;;
64789;SDS011;51223;51.816;5.862;2022-08-19T07:12:25;21.38;;;11.55;;
64789;SDS011;51223;51.816;5.862;2022-08-19T07:14:53;20.35;;;11.15;;
64789;SDS011;51223;51.816;5.862;2022-08-19T07:17:18;20.27;;;12.35;;
64789;SDS011;51223;51.816;5.862;2022-08-19T07:19:45;26.55;;;13.23;;
64789;SDS011;51223;51.816;5.862;2022-08-19T07:22:11;22.73;;;11.60;;
64789;SDS011;51223;51.816;5.862;2022-08-19T07:24:37;18.40;;;10.27;;
64789;SDS011;51223;51.816;5.862;2022-08-19T07:27:04;23.48;;;12.10;;
64789;SDS011;51223;51.816;5.862;2022-08-19T07:29:32;28.67;;;12.80;;
64789;SDS011;51223;51.816;5.862;2022-08-19T07:32:00;22.48;;;12.10;;
64789;SDS011;51223;51.816;5.862;2022-08-19T07:34:27;28.98;;;13.00;;
64789;SDS011;51223;51.816;5.862;2022-08-19T07:36:54;17.75;;;10.27;;
64789;SDS011;51223;51.816;5.862;2022-08-19T07:39:22;24.40;;;12.23;;
64789;SDS011;51223;51.816;5.862;2022-08-19T07:41:50;24.42;;;12.70;;
64789;SDS011;51223;51.816;5.862;2022-08-19T07:44:16;19.65;;;10.68;;
64789;SDS011;51223;51.816;5.862;2022-08-19T07:46:45;24.42;;;12.32;;
64789;SDS011;51223;51.816;5.862;2022-08-19T07:49:14;29.17;;;13.30;;
64789;SDS011;51223;51.816;5.862;2022-08-19T07:51:45;17.13;;;9.90;;
64789;SDS011;51223;51.816;5.862;2022-08-19T07:54:16;20.55;;;12.38;;
64789;SDS011;51223;51.816;5.862;2022-08-19T07:56:42;15.43;;;9.25;;
64789;SDS011;51223;51.816;5.862;2022-08-19T07:59:07;24.00;;;12.85;;
64789;SDS011;51223;51.816;5.862;2022-08-19T08:01:34;24.23;;;12.77;;
64789;SDS011;51223;51.816;5.862;2022-08-19T08:04:00;19.45;;;9.70;;
64789;SDS011;51223;51.816;5.862;2022-08-19T08:09:32;13.75;;;9.07;;
64789;SDS011;51223;51.816;5.862;2022-08-19T08:12:01;20.30;;;10.23;;
64789;SDS011;51223;51.816;5.862;2022-08-19T08:14:50;15.57;;;10.25;;
64789;SDS011;51223;51.816;5.862;2022-08-19T08:17:19;15.25;;;9.20;;
64789;SDS011;51223;51.816;5.862;2022-08-19T08:19:46;14.75;;;7.70;;
64789;SDS011;51223;51.816;5.862;2022-08-19T08:22:15;19.70;;;11.48;;
64789;SDS011;51223;51.816;5.862;2022-08-19T08:25:16;21.75;;;10.77;;
64789;SDS011;51223;51.816;5.862;2022-08-19T08:27:45;15.32;;;8.82;;
64789;SDS011;51223;51.816;5.862;2022-08-19T08:30:15;14.60;;;7.75;;
64789;SDS011;51223;51.816;5.862;2022-08-19T08:32:44;13.57;;;8.50;;
64789;SDS011;51223;51.816;5.862;2022-08-19T08:35:11;15.68;;;8.35;;
64789;SDS011;51223;51.816;5.862;2022-08-19T08:37:39;21.92;;;10.75;;
64789;SDS011;51223;51.816;5.862;2022-08-19T08:40:07;17.80;;;10.00;;
64789;SDS011;51223;51.816;5.862;2022-08-19T08:42:44;14.05;;;8.77;;
64789;SDS011;51223;51.816;5.862;2022-08-19T08:45:38;17.40;;;8.00;;
64789;SDS011;51223;51.816;5.862;2022-08-19T08:48:14;10.23;;;5.05;;
64789;SDS011;51223;51.816;5.862;2022-08-19T08:50:46;18.48;;;9.95;;
64789;SDS011;51223;51.816;5.862;2022-08-19T08:53:16;15.15;;;6.85;;
64789;SDS011;51223;51.816;5.862;2022-08-19T08:55:43;14.27;;;5.97;;
64789;SDS011;51223;51.816;5.862;2022-08-19T08:58:12;10.00;;;4.43;;
64789;SDS011;51223;51.816;5.862;2022-08-19T09:00:46;4.60;;;2.92;;
64789;SDS011;51223;51.816;5.862;2022-08-19T09:03:21;10.10;;;5.75;;
64789;SDS011;51223;51.816;5.862;2022-08-19T09:05:54;8.70;;;5.05;;
64789;SDS011;51223;51.816;5.862;2022-08-19T09:11:06;9.32;;;4.85;;
64789;SDS011;51223;51.816;5.862;2022-08-19T09:13:41;10.65;;;5.63;;
64789;SDS011;51223;51.816;5.862;2022-08-19T09:16:29;10.02;;;6.07;;
64789;SDS011;51223;51.816;5.862;2022-08-19T09:18:58;11.85;;;5.60;;
64789;SDS011;51223;51.816;5.862;2022-08-19T09:21:28;14.25;;;6.15;;
64789;SDS011;51223;51.816;5.862;2022-08-19T09:23:53;5.45;;;2.63;;
64789;SDS011;51223;51.816;5.862;2022-08-19T09:26:20;11.15;;;4.90;;
64789;SDS011;51223;51.816;5.862;2022-08-19T09:28:49;15.85;;;6.30;;
64789;SDS011;51223;51.816;5.862;2022-08-19T09:31:19;14.35;;;8.27;;
64789;SDS011;51223;51.816;5.862;2022-08-19T09:33:47;10.80;;;5.43;;
64789;SDS011;51223;51.816;5.862;2022-08-19T09:36:14;19.45;;;6.85;;
64789;SDS011;51223;51.816;5.862;2022-08-19T09:38:41;17.90;;;6.80;;
64789;SDS011;51223;51.816;5.862;2022-08-19T09:41:08;10.45;;;4.75;;
64789;SDS011;51223;51.816;5.862;2022-08-19T09:43:39;18.85;;;8.27;;
64789;SDS011;51223;51.816;5.862;2022-08-19T09:46:06;11.05;;;6.88;;
64789;SDS011;51223;51.816;5.862;2022-08-19T09:48:37;11.43;;;4.85;;
64789;SDS011;51223;51.816;5.862;2022-08-19T09:51:08;7.90;;;4.43;;
64789;SDS011;51223;51.816;5.862;2022-08-19T09:53:35;19.35;;;9.52;;
64789;SDS011;51223;51.816;5.862;2022-08-19T09:56:03;8.30;;;4.68;;
64789;SDS011;51223;51.816;5.862;2022-08-19T09:58:31;5.63;;;3.33;;
64789;SDS011;51223;51.816;5.862;2022-08-19T10:00:57;9.48;;;4.82;;
64789;SDS011;51223;51.816;5.862;2022-08-19T10:03:25;18.00;;;7.32;;
64789;SDS011;51223;51.816;5.862;2022-08-19T10:05:53;10.48;;;5.90;;
64789;SDS011;51223;51.816;5.862;2022-08-19T10:08:21;9.98;;;4.75;;
64789;SDS011;51223;51.816;5.862;2022-08-19T10:10:49;16.63;;;8.38;;
64789;SDS011;51223;51.816;5.862;2022-08-19T10:13:17;17.67;;;9.50;;
64789;SDS011;51223;51.816;5.862;2022-08-19T10:15:50;9.43;;;4.57;;
64789;SDS011;51223;51.816;5.862;2022-08-19T10:18:18;10.23;;;4.32;;
64789;SDS011;51223;51.816;5.862;2022-08-19T10:20:47;6.47;;;3.72;;
64789;SDS011;51223;51.816;5.862;2022-08-19T10:23:14;13.70;;;6.82;;
64789;SDS011;51223;51.816;5.862;2022-08-19T10:25:41;15.45;;;8.57;;
64789;SDS011;51223;51.816;5.862;2022-08-19T10:28:08;11.98;;;7.35;;
64789;SDS011;51223;51.816;5.862;2022-08-19T10:30:40;17.20;;;8.02;;
64789;SDS011;51223;51.816;5.862;2022-08-19T10:33:07;11.00;;;5.75;;
64789;SDS011;51223;51.816;5.862;2022-08-19T10:35:33;12.20;;;6.30;;
64789;SDS011;51223;51.816;5.862;2022-08-19T10:37:59;7.75;;;3.83;;
64789;SDS011;51223;51.816;5.862;2022-08-19T10:40:26;10.25;;;5.47;;
64789;SDS011;51223;51.816;5.862;2022-08-19T10:42:53;10.07;;;5.78;;
64789;SDS011;51223;51.816;5.862;2022-08-19T10:45:21;6.00;;;4.18;;
64789;SDS011;51223;51.816;5.862;2022-08-19T10:47:50;4.95;;;3.25;;
64789;SDS011;51223;51.816;5.862;2022-08-19T10:50:16;8.30;;;3.22;;
64789;SDS011;51223;51.816;5.862;2022-08-19T10:53:03;11.63;;;4.10;;
64789;SDS011;51223;51.816;5.862;2022-08-19T10:55:30;10.90;;;6.85;;
64789;SDS011;51223;51.816;5.862;2022-08-19T10:58:16;7.05;;;3.88;;
64789;SDS011;51223;51.816;5.862;2022-08-19T11:00:52;8.52;;;3.35;;
64789;SDS011;51223;51.816;5.862;2022-08-19T11:03:20;12.38;;;5.85;;
64789;SDS011;51223;51.816;5.862;2022-08-19T11:05:46;12.27;;;6.35;;
64789;SDS011;51223;51.816;5.862;2022-08-19T11:08:14;17.75;;;8.13;;
64789;SDS011;51223;51.816;5.862;2022-08-19T11:10:43;5.75;;;3.42;;
64789;SDS011;51223;51.816;5.862;2022-08-19T11:13:09;5.40;;;3.78;;
64789;SDS011;51223;51.816;5.862;2022-08-19T11:15:35;10.07;;;5.57;;
64789;SDS011;51223;51.816;5.862;2022-08-19T11:18:01;13.45;;;6.43;;
64789;SDS011;51223;51.816;5.862;2022-08-19T11:20:26;7.10;;;4.53;;
64789;SDS011;51223;51.816;5.862;2022-08-19T11:22:52;8.50;;;4.97;;
64789;SDS011;51223;51.816;5.862;2022-08-19T11:25:19;9.48;;;4.72;;
64789;SDS011;51223;51.816;5.862;2022-08-19T11:27:45;7.65;;;3.83;;
64789;SDS011;51223;51.816;5.862;2022-08-19T11:30:12;9.65;;;4.95;;
64789;SDS011;51223;51.816;5.862;2022-08-19T11:32:39;7.47;;;4.97;;
64789;SDS011;51223;51.816;5.862;2022-08-19T11:35:06;7.53;;;3.83;;
64789;SDS011;51223;51.816;5.862;2022-08-19T11:37:32;6.53;;;3.42;;
64789;SDS011;51223;51.816;5.862;2022-08-19T11:40:03;6.55;;;4.38;;
64789;SDS011;51223;51.816;5.862;2022-08-19T11:42:30;6.35;;;3.58;;
64789;SDS011;51223;51.816;5.862;2022-08-19T11:45:15;10.75;;;6.00;;
64789;SDS011;51223;51.816;5.862;2022-08-19T11:47:40;8.02;;;2.42;;
64789;SDS011;51223;51.816;5.862;2022-08-19T11:50:06;12.32;;;5.28;;
64789;SDS011;51223;51.816;5.862;2022-08-19T11:52:32;7.72;;;4.90;;
64789;SDS011;51223;51.816;5.862;2022-08-19T11:54:58;5.75;;;3.30;;
64789;SDS011;51223;51.816;5.862;2022-08-19T11:57:24;12.55;;;7.05;;
64789;SDS011;51223;51.816;5.862;2022-08-19T11:59:50;9.98;;;5.68;;
64789;SDS011;51223;51.816;5.862;2022-08-19T12:02:18;14.60;;;7.47;;
64789;SDS011;51223;51.816;5.862;2022-08-19T12:04:44;12.40;;;5.25;;
64789;SDS011;51223;51.816;5.862;2022-08-19T12:07:10;9.30;;;6.38;;
64789;SDS011;51223;51.816;5.862;2022-08-19T12:09:36;7.47;;;4.72;;
64789;SDS011;51223;51.816;5.862;2022-08-19T12:12:04;9.93;;;5.75;;
64789;SDS011;51223;51.816;5.862;2022-08-19T12:14:31;7.20;;;4.28;;
64789;SDS011;51223;51.816;5.862;2022-08-19T12:16:57;8.45;;;4.63;;
64789;SDS011;51223;51.816;5.862;2022-08-19T12:19:23;14.52;;;7.50;;
64789;SDS011;51223;51.816;5.862;2022-08-19T12:21:50;9.55;;;4.30;;
64789;SDS011;51223;51.816;5.862;2022-08-19T12:24:18;13.23;;;7.20;;
64789;SDS011;51223;51.816;5.862;2022-08-19T12:26:48;16.08;;;5.38;;
64789;SDS011;51223;51.816;5.862;2022-08-19T12:29:14;10.60;;;5.78;;
64789;SDS011;51223;51.816;5.862;2022-08-19T12:31:40;11.18;;;5.68;;
64789;SDS011;51223;51.816;5.862;2022-08-19T12:34:06;14.55;;;9.43;;
64789;SDS011;51223;51.816;5.862;2022-08-19T12:36:32;16.90;;;9.82;;
64789;SDS011;51223;51.816;5.862;2022-08-19T12:39:01;9.30;;;6.32;;
64789;SDS011;51223;51.816;5.862;2022-08-19T12:41:27;13.05;;;7.47;;
64789;SDS011;51223;51.816;5.862;2022-08-19T12:43:53;7.53;;;4.43;;
64789;SDS011;51223;51.816;5.862;2022-08-19T12:46:19;18.10;;;9.90;;
64789;SDS011;51223;51.816;5.862;2022-08-19T12:48:45;11.98;;;7.85;;
64789;SDS011;51223;51.816;5.862;2022-08-19T12:51:13;6.95;;;4.70;;
64789;SDS011;51223;51.816;5.862;2022-08-19T12:53:41;14.15;;;7.60;;
64789;SDS011;51223;51.816;5.862;2022-08-19T12:56:08;11.68;;;7.85;;
64789;SDS011;51223;51.816;5.862;2022-08-19T12:58:36;6.10;;;4.72;;
64789;SDS011;51223;51.816;5.862;2022-08-19T13:01:12;13.48;;;7.32;;
64789;SDS011;51223;51.816;5.862;2022-08-19T13:03:40;13.30;;;7.90;;
64789;SDS011;51223;51.816;5.862;2022-08-19T13:06:06;11.38;;;7.47;;
64789;SDS011;51223;51.816;5.862;2022-08-19T13:08:33;8.25;;;5.20;;
64789;SDS011;51223;51.816;5.862;2022-08-19T13:11:06;12.73;;;8.20;;
64789;SDS011;51223;51.816;5.862;2022-08-19T13:13:43;7.50;;;5.13;;
64789;SDS011;51223;51.816;5.862;2022-08-19T13:16:11;9.73;;;5.43;;
64789;SDS011;51223;51.816;5.862;2022-08-19T13:18:38;19.65;;;9.38;;
64789;SDS011;51223;51.816;5.862;2022-08-19T13:21:05;17.48;;;10.40;;
64789;SDS011;51223;51.816;5.862;2022-08-19T13:23:33;13.95;;;6.85;;
64789;SDS011;51223;51.816;5.862;2022-08-19T13:26:04;9.40;;;4.95;;
64789;SDS011;51223;51.816;5.862;2022-08-19T13:28:32;16.35;;;8.23;;
64789;SDS011;51223;51.816;5.862;2022-08-19T13:31:17;13.98;;;7.68;;
64789;SDS011;51223;51.816;5.862;2022-08-19T13:34:02;11.30;;;5.97;;
64789;SDS011;51223;51.816;5.862;2022-08-19T13:36:28;3.55;;;3.03;;
64789;SDS011;51223;51.816;5.862;2022-08-19T13:38:54;15.30;;;7.80;;
64789;SDS011;51223;51.816;5.862;2022-08-19T13:41:21;14.50;;;8.10;;
64789;SDS011;51223;51.816;5.862;2022-08-19T13:43:47;25.88;;;4.78;;
64789;SDS011;51223;51.816;5.862;2022-08-19T13:46:14;16.65;;;8.30;;
64789;SDS011;51223;51.816;5.862;2022-08-19T13:48:40;11.88;;;7.22;;
64789;SDS011;51223;51.816;5.862;2022-08-19T13:51:07;16.17;;;9.75;;
64789;SDS011;51223;51.816;5.862;2022-08-19T13:53:36;7.50;;;5.25;;
64789;SDS011;51223;51.816;5.862;2022-08-19T13:56:09;6.80;;;4.78;;
64789;SDS011;51223;51.816;5.862;2022-08-19T13:58:37;7.80;;;4.82;;
64789;SDS011;51223;51.816;5.862;2022-08-19T14:01:04;5.82;;;3.25;;
64789;SDS011;51223;51.816;5.862;2022-08-19T14:03:30;7.60;;;4.60;;
64789;SDS011;51223;51.816;5.862;2022-08-19T14:05:57;9.95;;;5.07;;
64789;SDS011;51223;51.816;5.862;2022-08-19T14:08:24;10.73;;;4.80;;
64789;SDS011;51223;51.816;5.862;2022-08-19T14:10:50;14.07;;;7.28;;
64789;SDS011;51223;51.816;5.862;2022-08-19T14:13:18;11.13;;;4.63;;
64789;SDS011;51223;51.816;5.862;2022-08-19T14:15:46;10.57;;;5.30;;
64789;SDS011;51223;51.816;5.862;2022-08-19T14:18:13;12.55;;;6.80;;
64789;SDS011;51223;51.816;5.862;2022-08-19T14:20:40;12.25;;;7.07;;
64789;SDS011;51223;51.816;5.862;2022-08-19T14:23:06;10.65;;;5.88;;
64789;SDS011;51223;51.816;5.862;2022-08-19T14:25:32;12.93;;;6.95;;
64789;SDS011;51223;51.816;5.862;2022-08-19T14:27:59;9.35;;;5.07;;
64789;SDS011;51223;51.816;5.862;2022-08-19T14:30:27;7.65;;;4.25;;
64789;SDS011;51223;51.816;5.862;2022-08-19T14:32:55;16.55;;;7.35;;
64789;SDS011;51223;51.816;5.862;2022-08-19T14:35:23;12.80;;;7.68;;
64789;SDS011;51223;51.816;5.862;2022-08-19T14:37:50;16.88;;;8.48;;
64789;SDS011;51223;51.816;5.862;2022-08-19T14:40:22;11.27;;;5.10;;
64789;SDS011;51223;51.816;5.862;2022-08-19T14:42:52;8.55;;;3.63;;
64789;SDS011;51223;51.816;5.862;2022-08-19T14:45:25;6.78;;;3.22;;
64789;SDS011;51223;51.816;5.862;2022-08-19T14:47:53;11.52;;;5.55;;
64789;SDS011;51223;51.816;5.862;2022-08-19T14:50:18;6.47;;;4.15;;
64789;SDS011;51223;51.816;5.862;2022-08-19T14:52:45;11.73;;;5.85;;
64789;SDS011;51223;51.816;5.862;2022-08-19T14:55:13;7.20;;;4.20;;
64789;SDS011;51223;51.816;5.862;2022-08-19T14:57:40;4.75;;;3.05;;